Flight Track Log - Related Links

Times and Time Zones

All times are in EST time to prevent confusion due to time zone crossing. See the N654JR flight status page for this flight to view local times or setup timezone preferences in your user account.

Time Position Orientation Groundspeed Altitude Reporting Facility
EST Latitude Longitude Course Direction KTS MPH feet Rate Location/Type
Mon 10:21:37 PM 37.6447 -97.4272 186° South 107 123 1,800  Level Kansas City Center
Mon 10:21:43 PM 37.6425 -97.4275 186° South 95 109 1,900 1,164 Climbing Kansas City Center
Mon 10:22:44 PM 37.6136 -97.4319 187° South 103 119 3,100 1,097 Climbing Kansas City Center
Mon 10:23:16 PM 37.6033 -97.4286 166° South 97 112 3,600 1,100 Climbing Kansas City Center
Mon 10:23:44 PM 37.5856 -97.4256 172° South 100 115 4,200 1,082 Climbing Kansas City Center
Mon 10:24:17 PM 37.5758 -97.4233 170° South 97 112 4,700 885 Climbing Kansas City Center
Mon 10:24:45 PM 37.5581 -97.4219 176° South 101 116 5,100 787 Climbing Kansas City Center
Mon 10:25:18 PM 37.5461 -97.4203 174° South 99 114 5,500 1,000 Climbing Kansas City Center
Mon 10:25:45 PM 37.5217 -97.4169 174° South 123 142 6,100 984 Climbing Kansas City Center
Mon 10:26:19 PM 37.5111 -97.4150 172° South 112 129 6,500 984 Climbing Kansas City Center
Mon 10:26:46 PM 37.4858 -97.4147 180° South 133 153 7,100 1,180 Climbing Kansas City Center
Mon 10:27:20 PM 37.4667 -97.4097 168° South 128 147 7,700 984 Climbing Kansas City Center
Mon 10:27:47 PM 37.4494 -97.4072 173° South 135 155 8,100 871 Climbing Kansas City Center
Mon 10:28:22 PM 37.4292 -97.4033 171° South 132 152 8,600 900 Climbing Kansas City Center
Mon 10:28:47 PM 37.4111 -97.4025 178° South 139 160 9,000 984 Climbing Kansas City Center
Mon 10:29:23 PM 37.3894 -97.3989 172° South 139 160 9,600 990 Climbing Kansas City Center
Mon 10:30:24 PM 37.3497 -97.3931 173° South 140 161 10,600 934 Climbing Kansas City Center
Mon 10:31:25 PM 37.3075 -97.3886 175° South 145 167 11,500 934 Climbing Kansas City Center
Mon 10:32:26 PM 37.2658 -97.3819 173° South 148 170 12,500 488 Climbing Kansas City Center
Mon 10:33:28 PM 37.2167 -97.3753 174° South 167 192 12,500 -49 Level Kansas City Center
Mon 10:34:29 PM 37.1606 -97.3694 175° South 193 222 12,400 -49 Descending Kansas City Center
Mon 10:35:30 PM 37.1053 -97.3611 173° South 195 224 12,400  Level Kansas City Center
Mon 10:36:31 PM 37.0497 -97.3506 171° South 198 228 12,400  Level Kansas City Center
Mon 10:37:32 PM 36.9828 -97.3417 174° South 200 230 12,400  Level Kansas City Center
Mon 10:38:34 PM 36.9281 -97.3339 174° South 200 230 12,400  Level Kansas City Center
Mon 10:39:35 PM 36.8717 -97.3281 175° South 200 230 12,400  Level Kansas City Center
Mon 10:40:36 PM 36.8214 -97.3208 173° South 200 230 12,400  Level Kansas City Center
Mon 10:41:37 PM 36.7664 -97.3114 172° South 199 229 12,400  Level Kansas City Center
Mon 10:42:38 PM 36.7114 -97.3075 177° South 199 229 12,400  Level Kansas City Center
Mon 10:43:39 PM 36.6453 -97.2978 173° South 199 229 12,400  Level Kansas City Center
Mon 10:44:41 PM 36.5897 -97.2900 174° South 199 229 12,400  Level Kansas City Center
Mon 10:45:42 PM 36.5342 -97.2844 175° South 199 229 12,400  Level Kansas City Center
Mon 10:46:43 PM 36.4786 -97.2781 175° South 199 229 12,400  Level Kansas City Center
Mon 10:47:44 PM 36.4228 -97.2694 173° South 199 229 12,400  Level Kansas City Center
Mon 10:48:45 PM 36.3678 -97.2628 174° South 199 229 12,400  Level Kansas City Center
Mon 10:49:46 PM 36.3119 -97.2553 174° South 200 230 12,400  Level Kansas City Center
Mon 10:50:47 PM 36.2561 -97.2481 174° South 200 230 12,400  Level Kansas City Center
Mon 10:51:48 PM 36.2008 -97.2400 173° South 200 230 12,400 49 Level Kansas City Center
Mon 10:52:49 PM 36.1456 -97.2339 175° South 200 230 12,500 49 Climbing Kansas City Center
Mon 10:53:50 PM 36.0914 -97.2269 174° South 200 230 12,500  Level Kansas City Center
Mon 10:54:51 PM 36.0244 -97.2178 174° South 200 230 12,500  Level Kansas City Center
Mon 10:57:06 PM 35.9006 -97.2022 174° South 199 229 12,500  Level Fort Worth Center
Mon 10:58:06 PM 35.8481 -97.1947 173° South 201 231 12,500  Level Fort Worth Center
Mon 10:59:07 PM 35.7922 -97.1883 175° South 200 230 12,500  Level Fort Worth Center
Mon 11:00:02 PM 35.7381 -97.1819 175° South 196 226 12,500  Level Fort Worth Center
Mon 11:00:08 PM 35.7369 -97.1811 149° Southeast 200 230 12,500  Level Fort Worth Center
Mon 11:01:02 PM 35.6825 -97.1764 176° South 197 227 12,500  Level Fort Worth Center
Mon 11:01:09 PM 35.6817 -97.1739 112° Southeast 200 230 12,500  Level Fort Worth Center
Mon 11:02:03 PM 35.6289 -97.1678 175° South 199 229 12,500  Level Fort Worth Center
Mon 11:02:11 PM 35.6258 -97.1667 164° South 200 230 12,500  Level Fort Worth Center
Mon 11:03:04 PM 35.5733 -97.1622 176° South 200 230 12,500  Level Fort Worth Center
Mon 11:03:12 PM 35.5708 -97.1592 135° Southeast 200 230 12,500  Level Fort Worth Center
Mon 11:04:04 PM 35.5175 -97.1542 176° South 199 229 12,500  Level Fort Worth Center
Mon 11:04:13 PM 35.5150 -97.1525 152° Southeast 200 230 12,500  Level Fort Worth Center
Mon 11:05:05 PM 35.4597 -97.1464 175° South 199 229 12,500  Level Fort Worth Center
Mon 11:05:14 PM 35.4594 -97.1444 100° East 200 230 12,500  Level Fort Worth Center
Mon 11:06:15 PM 35.4036 -97.1378 174° South 200 230 12,500  Level Fort Worth Center
Mon 11:07:17 PM 35.3478 -97.1308 174° South 200 230 12,500  Level Fort Worth Center
Mon 11:08:18 PM 35.2928 -97.1253 175° South 200 230 12,500  Level Fort Worth Center
Mon 11:09:19 PM 35.2258 -97.1164 174° South 200 230 12,500  Level Fort Worth Center
Mon 11:10:20 PM 35.1706 -97.1092 174° South 200 230 12,500 -49 Level Fort Worth Center
Mon 11:11:21 PM 35.1158 -97.1036 175° South 200 230 12,400 -49 Descending Fort Worth Center
Mon 11:12:23 PM 35.0597 -97.0953 173° South 200 230 12,400  Level Fort Worth Center
Mon 11:13:24 PM 35.0058 -97.0892 175° South 199 229 12,400  Level Fort Worth Center
Mon 11:14:25 PM 34.9508 -97.0811 173° South 199 229 12,400  Level Fort Worth Center
Mon 11:15:26 PM 34.8978 -97.0747 174° South 197 227 12,400  Level Fort Worth Center
Mon 11:16:27 PM 34.8433 -97.0669 173° South 197 227 12,400  Level Fort Worth Center
Mon 11:17:29 PM 34.7911 -97.0611 175° South 192 221 12,400  Level Fort Worth Center
Mon 11:18:30 PM 34.7372 -97.0542 174° South 192 221 12,400  Level Fort Worth Center
Mon 11:19:31 PM 34.6836 -97.0489 175° South 192 221 12,400  Level Fort Worth Center
Mon 11:20:32 PM 34.6203 -97.0392 173° South 192 221 12,400  Level Fort Worth Center
Mon 11:21:33 PM 34.5669 -97.0325 174° South 192 221 12,400  Level Fort Worth Center
Mon 11:22:35 PM 34.5142 -97.0250 173° South 192 221 12,400  Level Fort Worth Center
Mon 11:23:36 PM 34.4611 -97.0194 175° South 192 221 12,400  Level Fort Worth Center
Mon 11:24:37 PM 34.4081 -97.0128 174° South 192 221 12,400  Level Fort Worth Center
Mon 11:25:38 PM 34.3536 -97.0058 174° South 194 223 12,400  Level Fort Worth Center
Mon 11:26:39 PM 34.3008 -96.9994 174° South 193 222 12,400  Level Fort Worth Center
Mon 11:27:40 PM 34.2481 -96.9939 175° South 193 222 12,400  Level Fort Worth Center
Mon 11:28:41 PM 34.1939 -96.9850 172° South 193 222 12,400  Level Fort Worth Center
Mon 11:29:43 PM 34.1414 -96.9778 174° South 193 222 12,400 49 Level Fort Worth Center
Mon 11:30:44 PM 34.0833 -96.9714 175° South 192 221 12,500 49 Climbing Fort Worth Center
Mon 11:31:45 PM 34.0306 -96.9653 175° South 192 221 12,500 -246 Level Fort Worth Center
Mon 11:32:46 PM 33.9758 -96.9586 174° South 193 222 12,000 -541 Descending Fort Worth Center
Mon 11:33:47 PM 33.9181 -96.9497 173° South 203 234 11,400 -590 Descending Fort Worth Center
Mon 11:34:48 PM 33.8611 -96.9436 175° South 204 235 10,800 -639 Descending Fort Worth Center
Mon 11:35:49 PM 33.7953 -96.9358 174° South 204 235 10,100 -639 Descending Fort Worth Center
Mon 11:36:50 PM 33.7372 -96.9283 174° South 209 241 9,500 -590 Descending Fort Worth Center
Mon 11:37:51 PM 33.6806 -96.9225 175° South 207 238 8,900 -639 Descending Fort Worth Center
Mon 11:38:52 PM 33.6225 -96.9139 173° South 210 242 8,200 -639 Descending Fort Worth Center
Mon 11:39:53 PM 33.5606 -96.9072 175° South 210 242 7,600 -590 Descending Fort Worth Center
Mon 11:40:54 PM 33.5053 -96.9006 174° South 202 232 7,000 -590 Descending Fort Worth Center
Mon 11:41:55 PM 33.4514 -96.8939 174° South 200 230 6,400 -590 Descending Fort Worth Center
Mon 11:42:56 PM 33.3989 -96.8875 174° South 199 229 5,800 -590 Descending Fort Worth Center
Mon 11:43:57 PM 33.3425 -96.8814 175° South 197 227 5,200 -590 Descending Fort Worth Center
Mon 11:44:58 PM 33.2864 -96.8756 175° South 193 222 4,600 -541 Descending Fort Worth Center
Mon 11:45:59 PM 33.2364 -96.8694 174° South 187 215 4,100 -492 Descending Fort Worth Center
Mon 11:47:00 PM 33.1844 -96.8617 173° South 183 211 3,600 -246 Descending Fort Worth Center
Mon 11:48:01 PM 33.1319 -96.8536 173° South 183 211 3,600  Level Fort Worth Center

Login

Don't have an account? Register now (free) for customized features, flight alerts, and more!